Time;durP1;ratioP1;P1;durP2;ratioP2;P2;SDS_P1;SDS_P2;PMS_P1;PMS_P2;Temp;Humidity;BMP_temperature;BMP_pressure;BME280_temperature;BME280_humidity;BME280_pressure;Samples;Min_cycle;Max_cycle;Signal;HPM_P1;HPM_P2
2022/05/01 00:01:04;;;;;;;25.50;16.87;;;;;;;7.46;97.66;99189.41;5050265;28;20208;-50
2022/05/01 00:03:34;;;;;;;27.97;17.77;;;;;;;7.40;96.55;99188.13;5051657;28;20676;-50
2022/05/01 00:06:03;;;;;;;29.10;19.60;;;;;;;7.33;97.13;99179.97;5051311;28;20205;-51
2022/05/01 00:08:31;;;;;;;33.97;19.33;;;;;;;7.34;97.96;99186.00;5049575;28;20901;-51
2022/05/01 00:11:00;;;;;;;28.40;19.23;;;;;;;7.30;97.91;99182.78;5067909;28;20189;-50
2022/05/01 00:13:27;;;;;;;27.10;18.47;;;;;;;7.35;97.75;99180.66;5058532;28;20201;-51
2022/05/01 00:15:55;;;;;;;26.77;18.30;;;;;;;7.36;97.94;99178.91;5064139;28;20220;-49
2022/05/01 00:18:21;;;;;;;27.40;18.57;;;;;;;7.35;98.03;99174.66;5056081;28;20194;-50
2022/05/01 00:20:50;;;;;;;27.27;18.77;;;;;;;7.39;98.93;99174.28;5051052;28;20185;-50
2022/05/01 00:23:17;;;;;;;27.30;18.63;;;;;;;7.41;98.38;99179.38;5051350;28;20812;-51
2022/05/01 00:25:43;;;;;;;30.30;17.77;;;;;;;7.44;98.40;99186.09;5051014;28;20220;-50
2022/05/01 00:28:11;;;;;;;25.33;17.57;;;;;;;7.47;98.61;99176.28;5050739;28;20219;-53
2022/05/01 00:30:39;;;;;;;27.47;18.00;;;;;;;7.52;98.87;99174.19;5058696;28;20666;-50
2022/05/01 00:38:36;;;;;;;28.87;18.53;;;;;;;7.59;99.23;99171.09;5053497;28;20235;-50
2022/05/01 00:41:04;;;;;;;28.50;18.83;;;;;;;7.62;98.96;99168.28;5050636;28;20558;-50
2022/05/01 00:43:31;;;;;;;32.60;19.97;;;;;;;7.64;99.21;99166.38;5058993;28;20225;-50
2022/05/01 00:45:58;;;;;;;29.43;19.37;;;;;;;7.67;99.11;99160.94;5063045;28;20651;-50
2022/05/01 00:48:26;;;;;;;32.17;19.57;;;;;;;7.65;99.00;99158.50;5070765;28;20244;-50
2022/05/01 00:50:54;;;;;;;32.43;19.80;;;;;;;7.69;99.04;99159.06;5070623;28;20200;-50
2022/05/01 00:53:22;;;;;;;28.63;19.97;;;;;;;7.71;99.20;99167.56;5070975;28;20683;-50
2022/05/01 00:55:49;;;;;;;33.40;21.03;;;;;;;7.73;99.67;99155.28;5070330;28;20553;-51
2022/05/01 00:58:17;;;;;;;30.25;19.92;;;;;;;7.77;100.00;99154.09;5070842;28;20405;-50
2022/05/01 01:00:44;;;;;;;29.43;19.23;;;;;;;7.79;99.39;99159.19;5070930;28;20246;-50
2022/05/01 01:03:11;;;;;;;30.53;19.77;;;;;;;7.77;99.39;99156.69;5070256;28;20797;-50
2022/05/01 01:05:38;;;;;;;27.13;19.93;;;;;;;7.79;99.94;99159.19;5070298;28;20207;-50
2022/05/01 01:08:07;;;;;;;32.90;21.00;;;;;;;7.80;99.47;99155.66;5070805;28;20271;-50
2022/05/01 01:10:34;;;;;;;31.53;20.47;;;;;;;7.81;99.39;99152.91;5070526;28;20207;-51
2022/05/01 01:13:01;;;;;;;33.70;19.67;;;;;;;7.85;99.36;99150.91;5061155;28;20642;-50
2022/05/01 01:15:30;;;;;;;32.10;20.50;;;;;;;7.89;99.38;99147.13;5055170;28;20211;-50
2022/05/01 01:17:57;;;;;;;28.23;20.00;;;;;;;7.97;99.62;99149.09;5062607;28;20213;-49
2022/05/01 01:20:27;;;;;;;30.20;19.47;;;;;;;7.98;98.76;99142.97;5052697;28;20560;-49
2022/05/01 01:22:57;;;;;;;33.60;21.37;;;;;;;7.92;98.58;99139.09;5054215;28;20207;-51
2022/05/01 01:25:26;;;;;;;30.43;19.93;;;;;;;8.00;97.86;99151.47;5053710;28;20685;-50
2022/05/01 01:27:55;;;;;;;30.73;19.70;;;;;;;8.02;98.14;99148.72;5054088;28;20254;-52
2022/05/01 01:33:07;;;;;;;26.10;17.80;;;;;;;8.05;98.27;99145.88;5054237;28;20193;-51
2022/05/01 01:35:36;;;;;;;25.27;17.43;;;;;;;8.02;98.30;99149.56;5054380;28;20216;-50
2022/05/01 01:38:05;;;;;;;25.63;16.73;;;;;;;8.02;98.77;99146.13;5056039;28;20196;-51
2022/05/01 01:40:36;;;;;;;27.30;16.50;;;;;;;8.03;98.66;99147.78;5053785;28;20194;-51
2022/05/01 01:43:05;;;;;;;25.80;16.30;;;;;;;7.98;98.65;99143.78;5071169;28;20212;-51
2022/05/01 01:45:32;;;;;;;22.10;15.63;;;;;;;8.00;98.92;99145.44;5073883;28;20212;-52
2022/05/01 01:48:09;;;;;;;27.33;16.33;;;;;;;8.01;99.17;99144.47;5074156;28;20192;-51
2022/05/01 01:50:36;;;;;;;24.03;16.17;;;;;;;7.99;99.05;99136.81;5072874;28;20597;-50
2022/05/01 01:53:02;;;;;;;27.87;17.33;;;;;;;8.04;98.83;99141.63;5073858;28;20193;-50
2022/05/01 01:55:32;;;;;;;25.97;16.97;;;;;;;8.04;99.12;99141.63;5073591;28;20208;-50
2022/05/01 01:57:59;;;;;;;32.53;20.03;;;;;;;8.05;98.03;99145.88;5074108;28;20192;-50
2022/05/01 02:00:26;;;;;;;33.73;19.67;;;;;;;8.04;98.13;99147.69;5073894;28;20271;-50
2022/05/01 02:02:58;;;;;;;33.87;21.80;;;;;;;8.05;97.82;99148.50;5073539;28;20273;-50
2022/05/01 02:05:25;;;;;;;34.23;22.10;;;;;;;8.05;97.89;99144.13;5072043;28;20228;-50
2022/05/01 02:07:53;;;;;;;38.47;21.73;;;;;;;8.05;97.70;99141.53;5074035;28;20199;-50
2022/05/01 02:10:20;;;;;;;33.10;22.57;;;;;;;8.08;97.86;99137.84;5073542;28;20224;-53
2022/05/01 02:12:49;;;;;;;35.30;22.60;;;;;;;8.03;97.54;99134.78;5073936;28;20197;-50
2022/05/01 02:15:16;;;;;;;34.90;23.43;;;;;;;8.04;97.67;99141.63;5073452;28;20247;-50
2022/05/01 02:17:43;;;;;;;32.73;21.90;;;;;;;7.99;97.91;99131.63;5063248;28;20188;-50
2022/05/01 02:20:10;;;;;;;33.83;22.37;;;;;;;7.96;97.74;99127.47;5073686;28;20187;-50
2022/05/01 02:22:38;;;;;;;37.13;22.40;;;;;;;8.01;97.83;99134.06;5073561;28;20208;-51
2022/05/01 02:25:07;;;;;;;40.20;23.30;;;;;;;7.93;98.53;99130.34;5073611;28;20266;-51
2022/05/01 02:27:34;;;;;;;38.30;22.53;;;;;;;7.93;98.84;99119.94;5073905;28;20193;-50
2022/05/01 02:30:03;;;;;;;36.20;23.77;;;;;;;7.92;98.77;99125.25;5073148;28;20556;-50
2022/05/01 02:32:30;;;;;;;37.33;22.90;;;;;;;7.94;99.34;99119.00;5072072;28;20188;-50
2022/05/01 02:34:57;;;;;;;35.87;21.73;;;;;;;7.97;99.78;99120.50;5079403;28;20213;-50
2022/05/01 02:37:24;;;;;;;37.03;23.53;;;;;;;7.98;99.65;99114.38;5087040;28;20244;-50
2022/05/01 02:39:51;;;;;;;41.40;23.20;;;;;;;8.00;99.64;99114.22;5092300;28;20193;-51
2022/05/01 02:42:19;;;;;;;39.57;22.80;;;;;;;8.02;99.32;99109.72;5085908;28;20261;-50
2022/05/01 02:44:46;;;;;;;34.10;21.87;;;;;;;8.02;99.25;99114.94;5052663;28;20319;-51
2022/05/01 02:47:14;;;;;;;36.67;23.43;;;;;;;8.04;99.13;99111.28;5053263;28;20202;-50
2022/05/01 02:49:42;;;;;;;36.17;23.27;;;;;;;8.08;99.31;99107.50;5053443;28;20645;-50
2022/05/01 02:52:27;;;;;;;35.90;22.03;;;;;;;8.11;99.22;99111.59;5053457;28;20680;-50
2022/05/01 02:54:54;;;;;;;35.57;23.03;;;;;;;8.13;99.38;99107.94;5052549;28;20221;-50
2022/05/01 02:57:22;;;;;;;32.87;20.77;;;;;;;8.13;99.46;99107.94;5053041;28;20193;-49
2022/05/01 02:59:48;;;;;;;31.97;21.70;;;;;;;8.14;99.33;99116.56;5053233;28;20184;-50
2022/05/01 03:02:16;;;;;;;33.40;21.83;;;;;;;8.12;98.92;99114.09;5052892;28;20208;-50
2022/05/01 03:04:45;;;;;;;31.70;20.93;;;;;;;8.15;98.84;99107.81;5052786;28;20228;-50
2022/05/01 03:07:13;;;;;;;34.33;21.27;;;;;;;8.13;98.57;99105.34;5053713;28;20178;-50
2022/05/01 03:09:39;;;;;;;34.20;22.00;;;;;;;8.12;98.81;99105.44;5072331;28;20258;-50
2022/05/01 03:12:09;;;;;;;35.63;21.50;;;;;;;8.15;99.39;99109.59;5065584;28;20234;-50
2022/05/01 03:14:36;;;;;;;35.27;23.43;;;;;;;8.13;98.85;99113.16;5067555;28;20234;-50
2022/05/01 03:17:03;;;;;;;36.40;23.47;;;;;;;8.10;98.00;99108.19;5060169;28;20184;-50
2022/05/01 03:22:16;;;;;;;37.53;22.03;;;;;;;8.13;98.25;99110.53;5064281;28;20208;-50
2022/05/01 03:24:44;;;;;;;36.83;23.70;;;;;;;8.09;98.39;99098.75;5071934;28;20239;-50
2022/05/01 03:27:12;;;;;;;36.53;23.47;;;;;;;8.08;98.81;99098.84;5067277;28;20711;-51
2022/05/01 03:29:39;;;;;;;34.63;22.97;;;;;;;8.03;98.91;99096.63;5068898;28;20200;-50
2022/05/01 03:32:08;;;;;;;40.20;23.87;;;;;;;8.02;99.03;99100.19;5063566;28;20210;-50
2022/05/01 03:34:39;;;;;;;39.20;24.70;;;;;;;8.04;99.10;99103.47;5063293;28;20222;-53
2022/05/01 03:37:07;;;;;;;40.53;25.70;;;;;;;7.98;98.88;99098.78;5062314;28;20195;-50
2022/05/01 03:39:35;;;;;;;38.07;24.57;;;;;;;8.01;98.96;99098.53;5060761;28;20235;-51
2022/05/01 03:42:02;;;;;;;41.60;25.17;;;;;;;8.01;99.30;99098.53;5066015;28;20213;-50
2022/05/01 03:44:30;;;;;;;39.70;24.90;;;;;;;8.04;99.48;99094.84;5063291;28;20574;-50
2022/05/01 03:46:57;;;;;;;38.87;24.93;;;;;;;8.05;99.66;99096.50;5066485;28;20191;-50
2022/05/01 03:49:24;;;;;;;40.47;25.90;;;;;;;8.06;99.69;99085.16;5065409;28;20208;-50
2022/05/01 03:51:53;;;;;;;38.17;24.80;;;;;;;8.09;100.00;99090.09;5062660;28;20193;-51
2022/05/01 03:54:21;;;;;;;41.17;24.73;;;;;;;8.10;100.00;99090.00;5065531;28;20247;-50
2022/05/01 03:56:47;;;;;;;42.90;24.77;;;;;;;8.04;99.74;99095.69;5065513;28;20196;-51
2022/05/01 03:59:15;;;;;;;36.90;24.43;;;;;;;8.05;100.00;99086.09;5065126;28;20709;-51
2022/05/01 04:01:42;;;;;;;45.27;25.97;;;;;;;8.02;100.00;99097.56;5064663;28;20206;-51
2022/05/01 04:04:10;;;;;;;35.77;23.63;;;;;;;8.08;100.00;99089.28;5063821;28;20216;-50
2022/05/01 04:06:37;;;;;;;41.90;26.50;;;;;;;8.07;100.00;99086.78;5064181;28;20201;-49
2022/05/01 04:09:05;;;;;;;40.83;24.50;;;;;;;8.19;99.31;99092.81;5064901;28;20568;-50
2022/05/01 04:11:32;;;;;;;41.03;24.27;;;;;;;8.17;99.12;99094.69;5063427;28;20197;-51
2022/05/01 04:14:01;;;;;;;37.40;25.80;;;;;;;8.13;99.74;99092.34;5062295;28;20201;-49
2022/05/01 04:16:28;;;;;;;38.33;24.30;;;;;;;8.15;100.00;99091.41;5063645;28;20214;-49
2022/05/01 04:18:55;;;;;;;40.37;24.87;;;;;;;8.13;100.00;99094.94;5061654;28;20422;-50
2022/05/01 04:21:23;;;;;;;38.07;24.40;;;;;;;8.14;100.00;99098.34;5064356;28;20199;-53
2022/05/01 04:23:50;;;;;;;36.63;24.90;;;;;;;8.13;100.00;99096.69;5055740;28;20224;-49
2022/05/01 04:26:19;;;;;;;39.43;24.53;;;;;;;8.17;100.00;99098.09;5050889;28;20327;-49
2022/05/01 04:31:28;;;;;;;40.93;25.80;;;;;;;8.17;99.60;99105.09;5051012;28;20200;-49
2022/05/01 04:33:55;;;;;;;39.90;23.73;;;;;;;8.21;100.00;99103.91;5050723;28;20625;-49
2022/05/01 04:36:23;;;;;;;40.83;25.27;;;;;;;8.23;100.00;99102.00;5051088;28;20194;-49
2022/05/01 04:38:51;;;;;;;38.00;24.27;;;;;;;8.28;100.00;99107.66;5049594;28;20703;-49
2022/05/01 04:41:19;;;;;;;42.40;25.87;;;;;;;8.29;100.00;99109.31;5057002;28;20243;-49
2022/05/01 04:43:47;;;;;;;40.57;24.87;;;;;;;8.30;100.00;99104.91;5050915;28;20289;-50
2022/05/01 04:46:13;;;;;;;40.27;26.03;;;;;;;8.34;99.89;99108.94;5051048;28;20198;-50
2022/05/01 04:48:40;;;;;;;40.93;25.87;;;;;;;8.36;100.00;99113.06;5050821;28;20196;-50
2022/05/01 04:51:09;;;;;;;38.07;23.77;;;;;;;8.36;99.39;99113.06;5051003;28;20189;-50
2022/05/01 04:53:54;;;;;;;42.13;25.67;;;;;;;8.39;99.52;99115.44;5050757;28;20228;-49
2022/05/01 04:59:07;;;;;;;43.47;24.37;;;;;;;8.44;99.73;99111.63;5063460;28;20223;-50
2022/05/01 05:01:35;;;;;;;40.17;24.00;;;;;;;8.46;100.00;99114.94;5063872;28;20192;-50
2022/05/01 05:04:03;;;;;;;42.03;24.97;;;;;;;8.48;99.51;99116.44;5057642;28;20309;-50
2022/05/01 05:06:30;;;;;;;44.83;26.90;;;;;;;8.46;99.13;99114.94;5059510;28;20188;-51
2022/05/01 05:12:03;;;;;;;40.40;26.80;;;;;;;8.44;99.75;99117.63;5059220;28;20198;-50
2022/05/01 05:14:31;;;;;;;42.80;25.17;;;;;;;8.48;99.51;99120.84;5073540;28;20216;-50
2022/05/01 05:16:58;;;;;;;43.83;25.73;;;;;;;8.54;99.39;99120.34;5067205;28;20246;-50
2022/05/01 05:19:25;;;;;;;48.17;25.67;;;;;;;8.53;99.82;99129.94;5075439;28;20195;-50
2022/05/01 05:21:52;;;;;;;43.13;24.90;;;;;;;8.56;99.25;99127.06;5075359;28;20195;-52
2022/05/01 05:24:20;;;;;;;41.37;24.63;;;;;;;8.60;99.52;99132.84;5074954;28;20606;-50
2022/05/01 05:26:47;;;;;;;44.17;24.43;;;;;;;8.67;99.43;99133.19;5075430;28;20193;-50
2022/05/01 05:29:16;;;;;;;47.13;25.50;;;;;;;8.71;99.35;99126.78;5074268;28;20230;-50
2022/05/01 05:31:43;;;;;;;38.17;25.30;;;;;;;8.75;98.18;99130.78;5059993;28;20693;-50
2022/05/01 05:34:10;;;;;;;40.40;24.90;;;;;;;8.81;98.08;99130.28;5066451;28;20708;-50
2022/05/01 05:36:37;;;;;;;45.20;27.43;;;;;;;8.85;96.93;99134.28;5066772;28;20209;-50
2022/05/01 05:39:04;;;;;;;43.63;26.63;;;;;;;8.93;96.70;99138.81;5066849;28;20228;-50
2022/05/01 05:41:31;;;;;;;39.67;24.07;;;;;;;9.00;95.94;99131.34;5075022;28;20223;-50
2022/05/01 05:43:58;;;;;;;39.53;24.50;;;;;;;9.07;95.55;99137.66;5054581;28;20678;-51
2022/05/01 05:46:27;;;;;;;45.20;26.57;;;;;;;9.09;94.60;99140.16;5054935;28;20193;-50
2022/05/01 05:48:53;;;;;;;41.07;24.13;;;;;;;9.14;94.23;99135.38;5054894;28;20247;-50
2022/05/01 05:51:38;;;;;;;46.17;25.40;;;;;;;9.09;93.84;99135.75;5055256;28;20208;-51
2022/05/01 05:54:06;;;;;;;44.70;25.23;;;;;;;9.13;94.39;99144.16;5054342;28;20236;-49
2022/05/01 05:56:34;;;;;;;46.13;28.17;;;;;;;9.18;94.13;99141.16;5054870;28;20221;-51
2022/05/01 05:59:01;;;;;;;40.77;25.20;;;;;;;9.26;93.42;99142.19;5054755;28;20633;-49
2022/05/01 06:01:29;;;;;;;49.87;26.57;;;;;;;9.30;92.17;99143.56;5053398;28;20213;-50
2022/05/01 06:03:56;;;;;;;48.90;25.63;;;;;;;9.41;92.88;99137.44;5054441;28;20225;-51
2022/05/01 06:06:24;;;;;;;58.00;29.50;;;;;;;9.50;90.41;99142.81;5054436;28;20186;-50
2022/05/01 06:08:51;;;;;;;52.57;29.83;;;;;;;9.55;91.20;99144.06;5053189;28;20236;-49
2022/05/01 06:11:18;;;;;;;65.93;35.97;;;;;;;9.61;90.36;99142.72;5054732;28;20248;-51
2022/05/01 06:13:46;;;;;;;53.60;27.30;;;;;;;9.60;90.04;99141.88;5054288;28;20178;-50
2022/05/01 06:16:13;;;;;;;52.60;25.13;;;;;;;9.72;89.35;99145.22;5054663;28;20573;-50
2022/05/01 06:18:42;;;;;;;47.27;25.03;;;;;;;9.84;88.99;99145.13;5054588;28;20197;-49
2022/05/01 06:21:09;;;;;;;45.57;25.07;;;;;;;9.93;88.45;99141.72;5052530;28;20195;-50
2022/05/01 06:23:36;;;;;;;44.20;24.30;;;;;;;10.07;88.13;99144.91;5054177;28;20303;-50
2022/05/01 06:26:04;;;;;;;47.77;26.33;;;;;;;10.22;87.56;99137.50;5054489;28;20662;-50
2022/05/01 06:28:32;;;;;;;42.93;24.80;;;;;;;10.41;85.67;99140.16;5052989;28;20597;-50
2022/05/01 06:31:01;;;;;;;46.30;26.53;;;;;;;10.57;85.74;99144.81;5054185;28;20199;-50
2022/05/01 06:33:29;;;;;;;51.77;29.07;;;;;;;10.59;85.87;99140.28;5052690;28;20734;-50
2022/05/01 06:35:57;;;;;;;43.30;24.37;;;;;;;10.77;84.02;99145.63;5053863;28;20180;-50
2022/05/01 06:38:25;;;;;;;48.70;24.43;;;;;;;10.90;83.20;99144.50;5054384;28;20519;-49
2022/05/01 06:40:52;;;;;;;41.93;22.97;;;;;;;11.10;82.31;99142.69;5054017;28;20195;-50
2022/05/01 06:43:20;;;;;;;42.97;22.73;;;;;;;11.19;82.17;99152.28;5054043;28;20606;-50
2022/05/01 06:45:47;;;;;;;38.90;21.57;;;;;;;11.41;79.24;99146.88;5053547;28;20210;-50
2022/05/01 06:48:15;;;;;;;39.60;22.43;;;;;;;11.56;78.69;99142.81;5053739;28;20199;-50
2022/05/01 06:50:42;;;;;;;41.53;22.83;;;;;;;11.79;77.70;99148.47;5053274;28;20670;-50
2022/05/01 06:53:11;;;;;;;44.20;23.60;;;;;;;11.60;76.79;99144.19;5053057;28;20196;-50
2022/05/01 06:55:38;;;;;;;38.83;22.53;;;;;;;11.85;75.45;99147.06;5052609;28;20287;-50
2022/05/01 06:58:06;;;;;;;45.83;21.40;;;;;;;12.02;72.79;99152.50;5053154;28;20187;-50
2022/05/01 07:00:33;;;;;;;38.47;19.97;;;;;;;11.95;73.20;99150.44;5053500;28;20246;-50
2022/05/01 07:03:01;;;;;;;32.30;19.23;;;;;;;11.91;72.94;99154.31;5053368;28;20234;-50
2022/05/01 07:05:28;;;;;;;34.77;19.47;;;;;;;11.70;74.42;99145.91;5053507;28;20242;-50
2022/05/01 07:07:56;;;;;;;33.87;20.13;;;;;;;11.90;76.69;99157.91;5053347;28;20192;-50
2022/05/01 07:10:25;;;;;;;32.10;19.33;;;;;;;11.89;74.66;99145.00;5053355;28;20211;-50
2022/05/01 07:12:52;;;;;;;28.60;19.57;;;;;;;12.06;74.46;99148.63;5053323;28;20243;-50
2022/05/01 07:15:19;;;;;;;30.40;20.60;;;;;;;12.01;73.34;99159.53;5053030;28;20291;-49
2022/05/01 07:17:46;;;;;;;30.90;20.07;;;;;;;12.22;74.57;99148.78;5052437;28;20528;-50
2022/05/01 07:20:13;;;;;;;28.67;18.30;;;;;;;12.57;72.42;99145.50;5053326;28;20184;-50
2022/05/01 07:22:41;;;;;;;30.23;17.93;;;;;;;12.61;72.43;99144.25;5053103;28;20206;-50
2022/05/01 07:25:09;;;;;;;28.93;18.87;;;;;;;12.70;71.48;99141.53;5052791;28;20215;-50
2022/05/01 07:27:37;;;;;;;30.17;19.47;;;;;;;12.80;70.75;99146.66;5053315;28;20210;-51
2022/05/01 07:30:06;;;;;;;30.83;19.43;;;;;;;12.79;70.10;99145.00;5053061;28;20252;-50
2022/05/01 07:32:34;;;;;;;33.70;20.53;;;;;;;12.61;71.28;99145.03;5053276;28;20188;-49
2022/05/01 07:35:01;;;;;;;36.73;19.90;;;;;;;12.56;72.05;99147.28;5052550;28;20255;-51
2022/05/01 07:37:29;;;;;;;29.37;19.77;;;;;;;12.73;71.36;99150.06;5052864;28;20195;-51
2022/05/01 07:39:57;;;;;;;25.73;18.10;;;;;;;12.86;70.89;99145.25;5052946;28;20273;-51
2022/05/01 07:42:43;;;;;;;29.30;20.63;;;;;;;13.03;70.48;99142.75;5052981;28;20207;-50
2022/05/01 07:45:11;;;;;;;29.43;19.50;;;;;;;13.06;70.42;99142.44;5051181;28;20273;-53
2022/05/01 07:47:38;;;;;;;35.07;20.67;;;;;;;13.03;69.21;99147.97;5052946;28;20183;-50
2022/05/01 07:50:07;;;;;;;33.57;20.87;;;;;;;12.96;68.71;99135.50;5052129;28;20243;-50
2022/05/01 07:52:35;;;;;;;30.27;20.77;;;;;;;12.78;70.77;99135.50;5052038;28;20195;-50
2022/05/01 07:55:02;;;;;;;29.97;21.33;;;;;;;12.62;71.83;99135.41;5051498;28;20762;-50
2022/05/01 07:57:30;;;;;;;28.07;19.23;;;;;;;12.91;69.61;99131.66;5052531;28;20245;-50
2022/05/01 07:59:58;;;;;;;33.80;21.23;;;;;;;12.80;70.33;99133.56;5052603;28;20231;-50
2022/05/01 08:02:34;;;;;;;30.77;23.13;;;;;;;12.86;70.49;99126.91;5051903;28;20418;-51
2022/05/01 08:05:00;;;;;;;31.00;20.33;;;;;;;13.17;70.29;99136.94;5052131;28;20308;-49
2022/05/01 08:07:28;;;;;;;33.23;21.30;;;;;;;13.18;69.29;99130.72;5053194;28;20196;-49
2022/05/01 08:09:55;;;;;;;32.33;20.00;;;;;;;13.44;66.66;99129.88;5067467;28;20200;-49
2022/05/01 08:12:22;;;;;;;30.33;19.10;;;;;;;13.34;66.73;99122.09;5066836;28;20192;-49
2022/05/01 08:14:49;;;;;;;28.37;18.40;;;;;;;13.34;67.44;99123.88;5063599;28;20711;-49
2022/05/01 08:17:18;;;;;;;29.13;17.87;;;;;;;13.46;66.29;99121.88;5072081;28;20606;-49
2022/05/01 08:22:30;;;;;;;28.77;19.40;;;;;;;13.22;66.30;99124.19;5070710;28;20292;-49
2022/05/01 08:25:15;;;;;;;31.40;20.07;;;;;;;12.77;68.86;99128.63;5071843;28;20265;-49
2022/05/01 08:27:43;;;;;;;29.17;19.73;;;;;;;12.78;68.60;99130.28;5070699;28;20619;-49
2022/05/01 08:30:11;;;;;;;35.83;18.73;;;;;;;12.86;68.75;99132.16;5071957;28;20709;-49
2022/05/01 08:32:39;;;;;;;29.60;19.77;;;;;;;12.92;68.77;99134.16;5070735;28;20206;-49
2022/05/01 08:35:07;;;;;;;29.40;19.20;;;;;;;13.15;68.92;99131.03;5070301;28;20220;-49
2022/05/01 08:37:34;;;;;;;31.20;19.47;;;;;;;13.22;68.38;99128.59;5072170;28;20187;-49
2022/05/01 08:40:02;;;;;;;29.90;18.87;;;;;;;13.68;65.19;99129.16;5072279;28;20195;-50
2022/05/01 08:42:34;;;;;;;28.40;18.50;;;;;;;13.63;65.98;99128.00;5072042;28;20202;-49
2022/05/01 08:45:03;;;;;;;29.03;19.50;;;;;;;13.75;67.60;99129.34;5071564;28;20278;-49
2022/05/01 08:47:40;;;;;;;28.43;19.07;;;;;;;13.47;66.41;99136.63;5072309;28;20195;-50
2022/05/01 08:50:10;;;;;;;28.23;18.97;;;;;;;13.67;65.93;99130.16;5071975;28;20712;-49
2022/05/01 08:52:38;;;;;;;28.47;19.40;;;;;;;13.61;65.66;99129.94;5072092;28;20267;-49
2022/05/01 08:55:07;;;;;;;33.33;20.53;;;;;;;13.63;66.92;99134.06;5071155;28;20292;-49
2022/05/01 08:57:35;;;;;;;28.00;19.13;;;;;;;13.79;64.74;99135.91;5071777;28;20655;-49
2022/05/01 09:00:05;;;;;;;32.65;23.50;;;;;;;13.94;64.93;99136.13;5071103;28;20430;-49
2022/05/01 09:02:33;;;;;;;28.60;19.67;;;;;;;14.05;64.02;99134.19;5072110;28;20196;-49
2022/05/01 09:05:01;;;;;;;26.50;19.60;;;;;;;14.25;64.10;99135.53;5071192;28;20255;-49
2022/05/01 09:07:29;;;;;;;32.83;20.80;;;;;;;14.57;63.63;99130.44;5071632;28;20202;-49
2022/05/01 09:09:58;;;;;;;26.57;19.53;;;;;;;14.36;63.41;99131.75;5070229;28;20262;-49
2022/05/01 09:15:11;;;;;;;27.77;18.60;;;;;;;14.96;60.95;99128.97;5071385;28;20266;-49
2022/05/01 09:17:39;;;;;;;27.63;19.47;;;;;;;15.10;61.50;99128.28;5071820;28;20186;-49
2022/05/01 09:20:25;;;;;;;29.47;20.50;;;;;;;15.42;58.96;99125.72;5071927;28;20200;-49
2022/05/01 09:22:55;;;;;;;29.03;18.83;;;;;;;15.84;60.24;99129.84;5071432;28;20188;-49
2022/05/01 09:25:23;;;;;;;26.27;20.33;;;;;;;15.42;58.60;99126.56;5071497;28;20218;-49
2022/05/01 09:27:52;;;;;;;27.80;19.07;;;;;;;15.55;59.12;99128.66;5071282;28;20186;-49
2022/05/01 09:30:39;;;;;;;25.73;18.83;;;;;;;15.69;58.98;99132.38;5071871;28;20198;-50
2022/05/01 09:33:18;;;;;;;24.97;18.13;;;;;;;15.63;57.32;99133.88;5071469;28;20196;-49
2022/05/01 09:35:45;;;;;;;24.20;18.33;;;;;;;15.16;58.62;99132.88;5071166;28;20766;-50
2022/05/01 09:38:19;;;;;;;26.93;19.87;;;;;;;14.89;59.35;99134.09;5071483;28;20865;-49
2022/05/01 09:40:49;;;;;;;28.67;19.67;;;;;;;14.68;61.38;99134.56;5072196;28;20185;-49
2022/05/01 09:43:36;;;;;;;27.93;19.47;;;;;;;14.44;62.02;99134.38;5075011;28;20288;-49
2022/05/01 09:46:14;;;;;;;32.13;19.63;;;;;;;14.27;61.82;99130.94;5074962;28;20185;-49
2022/05/01 09:48:43;;;;;;;28.17;19.67;;;;;;;13.99;63.14;99136.47;5074954;28;20189;-49
2022/05/01 09:51:18;;;;;;;31.40;20.00;;;;;;;13.82;64.58;99134.75;5074345;28;20681;-49
2022/05/01 09:53:47;;;;;;;29.53;19.43;;;;;;;13.82;65.30;99137.38;5073808;28;20274;-51
2022/05/01 09:56:14;;;;;;;30.60;19.93;;;;;;;13.42;65.49;99140.53;5074669;28;20544;-49
2022/05/01 09:58:43;;;;;;;30.23;20.20;;;;;;;13.42;66.26;99144.94;5074479;28;20190;-50
2022/05/01 10:01:12;;;;;;;31.53;19.90;;;;;;;13.26;66.58;99140.41;5074774;28;20734;-50
2022/05/01 10:03:41;;;;;;;30.60;19.40;;;;;;;13.34;66.02;99145.69;5074305;28;20184;-49
2022/05/01 10:06:11;;;;;;;28.30;19.17;;;;;;;13.39;64.52;99143.44;5074550;28;20180;-49
2022/05/01 10:08:41;;;;;;;31.33;19.60;;;;;;;13.09;65.01;99150.78;5075245;28;20227;-49
2022/05/01 10:11:30;;;;;;;32.80;20.53;;;;;;;12.93;65.60;99148.91;5075036;28;20202;-50
2022/05/01 10:13:58;;;;;;;32.23;19.80;;;;;;;12.85;66.35;99149.66;5074393;28;20260;-49
2022/05/01 10:16:26;;;;;;;31.17;19.40;;;;;;;12.83;66.31;99141.13;5074562;28;20189;-49
2022/05/01 10:19:14;;;;;;;31.60;19.50;;;;;;;12.70;67.07;99140.72;5074750;28;20221;-49
2022/05/01 10:21:47;;;;;;;27.43;18.63;;;;;;;12.81;67.21;99147.50;5073206;28;20191;-49
2022/05/01 10:24:14;;;;;;;31.20;19.77;;;;;;;12.94;65.53;99139.22;5072575;28;20236;-49
2022/05/01 10:26:52;;;;;;;30.77;19.27;;;;;;;12.98;67.46;99141.41;5074504;28;20183;-49
2022/05/01 10:29:36;;;;;;;27.37;19.07;;;;;;;13.06;66.73;99138.00;5074143;28;20186;-49
2022/05/01 10:32:28;;;;;;;30.57;18.67;;;;;;;13.25;65.92;99144.81;5074194;28;20198;-49
2022/05/01 10:35:16;;;;;;;30.23;18.90;;;;;;;13.51;64.49;99136.13;5073549;28;20285;-49
2022/05/01 10:38:08;;;;;;;27.07;17.67;;;;;;;13.65;64.83;99132.13;5071521;28;20195;-49
2022/05/01 10:40:41;;;;;;;29.67;19.70;;;;;;;13.52;65.18;99132.53;5070772;28;20207;-49
2022/05/01 10:43:30;;;;;;;24.67;17.90;;;;;;;13.85;62.74;99134.44;5073672;28;20551;-49
2022/05/01 10:46:00;;;;;;;27.90;18.17;;;;;;;13.77;63.33;99123.97;5065413;28;20254;-49
2022/05/01 10:48:32;;;;;;;26.27;18.63;;;;;;;14.11;63.55;99120.41;5073860;28;20230;-49
2022/05/01 10:51:37;;;;;;;26.43;16.93;;;;;;;14.39;62.25;99117.50;5073261;28;20186;-49
2022/05/01 10:54:36;;;;;;;26.67;17.33;;;;;;;14.65;60.91;99122.56;5072002;28;20211;-49
2022/05/01 10:57:16;;;;;;;26.40;16.37;;;;;;;14.74;63.13;99120.81;5071908;28;20627;-49
2022/05/01 11:00:04;;;;;;;26.20;17.43;;;;;;;15.01;59.11;99116.97;5073876;28;20220;-49
2022/05/01 11:02:39;;;;;;;25.30;16.33;;;;;;;14.94;59.11;99117.81;5073507;28;20255;-49
2022/05/01 11:05:08;;;;;;;25.80;17.37;;;;;;;14.60;59.27;99115.19;5072978;28;20224;-50
2022/05/01 11:07:39;;;;;;;22.93;17.27;;;;;;;15.14;58.46;99110.38;5073462;28;20668;-49
2022/05/01 11:10:09;;;;;;;27.17;17.23;;;;;;;15.42;58.69;99113.41;5073372;28;20182;-50
2022/05/01 11:12:38;;;;;;;24.83;17.40;;;;;;;15.69;57.61;99113.13;5073353;28;20190;-49
2022/05/01 11:15:08;;;;;;;26.87;17.30;;;;;;;15.96;58.17;99117.13;5072882;28;20293;-49
2022/05/01 11:17:51;;;;;;;27.87;17.50;;;;;;;16.07;55.45;99116.72;5073236;28;20313;-49
2022/05/01 11:20:30;;;;;;;26.63;16.57;;;;;;;16.11;55.71;99113.75;5073310;28;20221;-49
2022/05/01 11:22:58;;;;;;;24.43;16.57;;;;;;;16.61;55.84;99111.56;5072943;28;20198;-49
2022/05/01 11:25:32;;;;;;;25.73;18.13;;;;;;;16.69;55.06;99108.84;5072612;28;20260;-49
2022/05/01 11:28:00;;;;;;;23.63;16.10;;;;;;;17.04;54.10;99103.94;5073054;28;20191;-49
2022/05/01 11:30:37;;;;;;;24.80;16.33;;;;;;;17.42;53.48;99105.66;5073029;28;20187;-49
2022/05/01 11:33:08;;;;;;;23.37;15.93;;;;;;;17.78;52.38;99099.59;5073070;28;20184;-49
2022/05/01 11:35:56;;;;;;;23.97;16.67;;;;;;;18.06;50.24;99098.06;5072506;28;20208;-49
2022/05/01 11:38:24;;;;;;;20.30;15.27;;;;;;;18.25;48.61;99096.63;5072973;28;20535;-49
2022/05/01 11:40:57;;;;;;;22.20;14.30;;;;;;;17.94;48.46;99093.25;5072274;28;20579;-49
2022/05/01 11:43:24;;;;;;;20.10;13.70;;;;;;;17.49;50.68;99096.00;5072638;28;20204;-50
2022/05/01 11:45:52;;;;;;;18.23;13.60;;;;;;;17.63;51.92;99085.59;5072254;28;20215;-49
2022/05/01 11:48:21;;;;;;;17.83;13.10;;;;;;;17.60;50.78;99089.41;5072774;28;20188;-50
2022/05/01 11:50:50;;;;;;;18.20;14.30;;;;;;;18.22;51.25;99083.78;5071829;28;20224;-50
2022/05/01 11:53:20;;;;;;;25.00;13.87;;;;;;;18.11;47.16;99071.91;5071961;28;20183;-49
2022/05/01 12:04:27;;;;;;;19.73;13.47;;;;;;;17.76;49.34;99063.78;5071522;28;20286;-49
2022/05/01 12:07:02;;;;;;;19.23;13.40;;;;;;;17.94;50.26;99068.69;5072467;28;20273;-49